Time;durP1;ratioP1;P1;durP2;ratioP2;P2;SDS_P1;SDS_P2;PMS_P1;PMS_P2;Temp;Humidity;BMP_temperature;BMP_pressure;BME280_temperature;BME280_humidity;BME280_pressure;Samples;Min_cycle;Max_cycle;Signal;HPM_P1;HPM_P2
2021/06/27 00:01:39;;;;;;;34.17;31.80;;;18.50;87.80;;;;;;4965155;28;21112;-81
2021/06/27 00:04:10;;;;;;;33.93;31.63;;;18.40;87.80;;;;;;5030425;28;20488;-81
2021/06/27 00:06:37;;;;;;;34.47;32.07;;;18.40;87.90;;;;;;5052259;28;20457;-81
2021/06/27 00:09:05;;;;;;;33.47;30.97;;;18.40;87.90;;;;;;5037010;28;20523;-81
2021/06/27 00:11:31;;;;;;;34.13;31.77;;;18.30;87.90;;;;;;5036137;28;20460;-81
2021/06/27 00:13:59;;;;;;;34.30;32.00;;;18.30;88.20;;;;;;4979734;28;20500;-81
2021/06/27 00:16:28;;;;;;;34.03;31.73;;;18.20;88.30;;;;;;5039737;28;20485;-80
2021/06/27 00:18:55;;;;;;;34.13;31.83;;;18.20;88.40;;;;;;4976528;28;20466;-80
2021/06/27 00:21:23;;;;;;;33.33;31.23;;;18.20;88.40;;;;;;4981286;28;20561;-80
2021/06/27 00:23:52;;;;;;;33.73;31.40;;;18.20;88.50;;;;;;4965708;28;20550;-81
2021/06/27 00:26:21;;;;;;;34.83;32.37;;;18.20;88.40;;;;;;4975095;28;20462;-80
2021/06/27 00:28:49;;;;;;;33.60;31.40;;;18.10;88.70;;;;;;4981300;28;20537;-80
2021/06/27 00:31:17;;;;;;;34.33;32.07;;;18.20;88.50;;;;;;5073810;28;20462;-80
2021/06/27 00:33:44;;;;;;;34.57;31.87;;;18.10;88.50;;;;;;5017725;28;20565;-80
2021/06/27 00:36:12;;;;;;;33.13;30.83;;;18.10;88.60;;;;;;5001550;28;21258;-80
2021/06/27 00:38:40;;;;;;;33.83;31.47;;;18.00;88.60;;;;;;4980591;28;20454;-80
2021/06/27 00:41:08;;;;;;;33.43;31.20;;;18.00;88.90;;;;;;5016248;28;20493;-80
2021/06/27 00:43:35;;;;;;;33.23;30.83;;;18.00;89.00;;;;;;5001948;28;20492;-80
2021/06/27 00:46:02;;;;;;;34.03;31.73;;;18.00;89.00;;;;;;5030887;28;20462;-81
2021/06/27 00:48:29;;;;;;;32.67;30.57;;;18.00;88.90;;;;;;5006938;28;21101;-80
2021/06/27 00:50:58;;;;;;;33.87;31.67;;;17.90;89.00;;;;;;5044014;28;20489;-80
2021/06/27 00:53:26;;;;;;;32.97;30.87;;;17.90;89.10;;;;;;5013295;28;20458;-80
2021/06/27 00:55:58;;;;;;;34.20;31.50;;;17.80;89.30;;;;;;5027138;28;20514;-81
2021/06/27 00:58:30;;;;;;;33.33;31.13;;;17.80;89.30;;;;;;5024555;28;21042;-80
2021/06/27 01:00:59;;;;;;;33.90;31.50;;;17.80;89.40;;;;;;5065217;28;20493;-80
2021/06/27 01:03:26;;;;;;;32.50;30.40;;;17.80;89.60;;;;;;4988111;28;20502;-81
2021/06/27 01:05:54;;;;;;;33.00;30.70;;;17.80;89.60;;;;;;5031679;28;20531;-80
2021/06/27 01:08:21;;;;;;;34.73;32.30;;;17.80;89.60;;;;;;4992326;28;20466;-80
2021/06/27 01:10:49;;;;;;;33.30;31.00;;;17.70;89.50;;;;;;4992570;28;20506;-80
2021/06/27 01:13:19;;;;;;;33.97;31.63;;;17.70;89.90;;;;;;4976907;28;20495;-80
2021/06/27 01:15:46;;;;;;;34.20;31.80;;;17.70;89.90;;;;;;5024618;28;20453;-80
2021/06/27 01:18:16;;;;;;;33.30;30.70;;;17.70;89.70;;;;;;4973150;28;20467;-80
2021/06/27 01:20:44;;;;;;;32.67;30.33;;;17.60;90.00;;;;;;5010131;28;20556;-80
2021/06/27 01:23:14;;;;;;;33.57;31.17;;;17.60;90.00;;;;;;4974223;28;21107;-80
2021/06/27 01:25:44;;;;;;;33.33;31.10;;;17.60;90.30;;;;;;5017677;28;20549;-81
2021/06/27 01:28:13;;;;;;;32.47;30.27;;;17.50;90.30;;;;;;5006240;28;20465;-81
2021/06/27 01:30:41;;;;;;;31.97;29.90;;;17.50;90.20;;;;;;4973945;28;20451;-81
2021/06/27 01:33:18;;;;;;;34.40;32.00;;;17.50;90.40;;;;;;4972277;28;20477;-81
2021/06/27 01:35:46;;;;;;;33.07;30.77;;;17.40;90.40;;;;;;5035871;28;20486;-80
2021/06/27 01:38:16;;;;;;;32.90;30.70;;;17.50;90.10;;;;;;5029533;28;20983;-80
2021/06/27 01:40:47;;;;;;;33.23;31.03;;;17.50;90.00;;;;;;5031283;28;20464;-80
2021/06/27 01:43:19;;;;;;;32.20;29.83;;;17.50;90.20;;;;;;4980588;28;20529;-80
2021/06/27 01:45:48;;;;;;;33.47;30.97;;;17.30;90.50;;;;;;4982162;28;20458;-80
2021/06/27 01:48:16;;;;;;;32.80;30.53;;;17.30;90.60;;;;;;4995028;28;20459;-81
2021/06/27 01:50:46;;;;;;;30.80;28.70;;;17.30;90.50;;;;;;5059025;28;20469;-80
2021/06/27 01:53:17;;;;;;;31.83;29.73;;;17.30;90.40;;;;;;5064473;28;20464;-81
2021/06/27 01:55:44;;;;;;;31.30;29.20;;;17.30;90.50;;;;;;5021739;28;21028;-80
2021/06/27 01:58:12;;;;;;;31.67;29.47;;;17.30;90.30;;;;;;5002431;28;20517;-81
2021/06/27 02:00:39;;;;;;;29.80;27.90;;;17.30;90.30;;;;;;5062543;28;20458;-81
2021/06/27 02:03:15;;;;;;;30.63;28.70;;;17.30;90.10;;;;;;5014762;28;20486;-80
2021/06/27 02:05:49;;;;;;;29.67;27.70;;;17.40;90.00;;;;;;5017318;28;20469;-81
2021/06/27 02:08:20;;;;;;;33.50;31.37;;;17.40;90.00;;;;;;5009972;28;20457;-80
2021/06/27 02:10:46;;;;;;;30.73;28.73;;;17.30;90.00;;;;;;5061862;28;20565;-80
2021/06/27 02:13:13;;;;;;;30.20;28.10;;;17.40;90.00;;;;;;4985812;28;20468;-80
2021/06/27 02:15:40;;;;;;;30.63;28.23;;;17.50;89.70;;;;;;4985150;28;20568;-80
2021/06/27 02:18:23;;;;;;;29.87;27.80;;;17.50;89.60;;;;;;5023141;28;20487;-80
2021/06/27 02:20:50;;;;;;;29.87;27.97;;;17.40;89.80;;;;;;4996249;28;20546;-80
2021/06/27 02:23:17;;;;;;;29.90;27.90;;;17.40;89.90;;;;;;4972429;28;20469;-80
2021/06/27 02:25:45;;;;;;;29.43;27.43;;;17.40;90.00;;;;;;4988178;28;20494;-81
2021/06/27 02:28:13;;;;;;;31.57;29.47;;;17.40;89.90;;;;;;4992405;28;21017;-80
2021/06/27 02:30:40;;;;;;;30.80;28.90;;;17.40;89.80;;;;;;5017675;28;20521;-80
2021/06/27 02:33:07;;;;;;;31.27;29.07;;;17.30;89.90;;;;;;4980331;28;20464;-80
2021/06/27 02:35:34;;;;;;;29.43;27.63;;;17.30;90.00;;;;;;5012023;28;20569;-80
2021/06/27 02:38:01;;;;;;;31.07;28.90;;;17.30;90.10;;;;;;5016001;28;21416;-80
2021/06/27 02:40:28;;;;;;;30.50;28.47;;;17.30;89.90;;;;;;5028469;28;20574;-80
2021/06/27 02:42:56;;;;;;;30.00;28.20;;;17.30;89.90;;;;;;5003558;28;20509;-80
2021/06/27 02:45:24;;;;;;;31.60;29.60;;;17.30;89.90;;;;;;4986178;28;20514;-80
2021/06/27 02:47:51;;;;;;;30.70;28.70;;;17.20;89.90;;;;;;5011549;28;20534;-80
2021/06/27 02:50:18;;;;;;;32.17;29.87;;;17.10;90.30;;;;;;5019247;28;20458;-80
2021/06/27 02:52:46;;;;;;;30.17;28.17;;;17.10;90.40;;;;;;5004486;28;20521;-80
2021/06/27 02:55:14;;;;;;;30.17;28.27;;;17.00;90.30;;;;;;4985173;28;20485;-81
2021/06/27 02:57:42;;;;;;;29.83;27.87;;;17.10;90.40;;;;;;5017095;28;20515;-80
2021/06/27 03:00:13;;;;;;;29.70;27.70;;;17.00;90.50;;;;;;5029605;28;21015;-81
2021/06/27 03:02:40;;;;;;;30.20;28.40;;;17.10;90.40;;;;;;4971735;28;20471;-80
2021/06/27 03:05:08;;;;;;;29.33;27.40;;;17.00;90.20;;;;;;4972378;28;20478;-81
2021/06/27 03:07:35;;;;;;;32.90;30.80;;;17.00;90.50;;;;;;5033998;28;20966;-80
2021/06/27 03:10:03;;;;;;;30.10;28.00;;;17.00;90.40;;;;;;5065988;28;20543;-81
2021/06/27 03:12:29;;;;;;;30.33;28.23;;;17.00;90.40;;;;;;5007549;28;20459;-81
2021/06/27 03:14:56;;;;;;;31.30;29.10;;;16.90;90.80;;;;;;4972432;28;21223;-80
2021/06/27 03:17:25;;;;;;;30.00;28.20;;;16.90;91.10;;;;;;5001543;28;20482;-81
2021/06/27 03:19:52;;;;;;;30.00;27.63;;;16.90;91.00;;;;;;4995250;28;21019;-80
2021/06/27 03:22:18;;;;;;;29.63;27.73;;;17.00;90.80;;;;;;5026240;28;20545;-80
2021/06/27 03:24:45;;;;;;;29.83;27.73;;;17.00;90.60;;;;;;5068294;28;20477;-77
2021/06/27 03:27:12;;;;;;;30.00;28.13;;;17.00;90.50;;;;;;4988352;28;20463;-80
2021/06/27 03:29:39;;;;;;;30.33;28.23;;;17.00;90.50;;;;;;4968893;28;20469;-80
2021/06/27 03:32:07;;;;;;;30.63;28.53;;;16.90;90.40;;;;;;5008131;28;20477;-80
2021/06/27 03:34:35;;;;;;;30.50;28.60;;;16.90;90.50;;;;;;5021079;28;20486;-80
2021/06/27 03:37:02;;;;;;;30.03;27.90;;;17.00;90.40;;;;;;5000990;28;20485;-80
2021/06/27 03:39:29;;;;;;;30.03;28.23;;;17.00;90.30;;;;;;5015363;28;20507;-80
2021/06/27 03:41:55;;;;;;;29.60;27.70;;;17.10;90.30;;;;;;5019693;28;20554;-80
2021/06/27 03:44:23;;;;;;;29.90;28.07;;;17.20;89.70;;;;;;4972020;28;20488;-80
2021/06/27 03:46:50;;;;;;;30.43;28.53;;;17.30;89.20;;;;;;5017419;28;20465;-80
2021/06/27 03:49:17;;;;;;;28.57;26.77;;;17.30;88.90;;;;;;5042644;28;20462;-81
2021/06/27 03:51:46;;;;;;;32.27;30.30;;;17.40;89.50;;;;;;5033486;28;20468;-80
2021/06/27 03:54:13;;;;;;;29.73;27.53;;;17.50;89.20;;;;;;5015628;28;20572;-80
2021/06/27 03:56:40;;;;;;;30.63;28.63;;;17.80;88.40;;;;;;5024944;28;20562;-81
2021/06/27 03:59:07;;;;;;;29.83;28.03;;;17.90;86.70;;;;;;5026135;28;20458;-80
2021/06/27 04:01:34;;;;;;;31.10;29.10;;;17.90;86.60;;;;;;5062440;28;20492;-81
2021/06/27 04:04:04;;;;;;;29.93;27.83;;;18.00;86.30;;;;;;5033550;28;20498;-80
2021/06/27 04:06:31;;;;;;;31.90;29.50;;;18.00;86.50;;;;;;5053593;28;20457;-80
2021/06/27 04:09:00;;;;;;;31.07;29.07;;;18.00;86.50;;;;;;5024804;28;20468;-80
2021/06/27 04:11:27;;;;;;;31.40;29.40;;;18.10;86.30;;;;;;5052104;28;20492;-80
2021/06/27 04:13:54;;;;;;;30.67;28.77;;;18.00;86.30;;;;;;4973500;28;20525;-80
2021/06/27 04:16:21;;;;;;;30.17;28.27;;;18.00;86.60;;;;;;5018206;28;20573;-81
2021/06/27 04:18:48;;;;;;;31.17;29.27;;;18.10;86.20;;;;;;5030736;28;20579;-80
2021/06/27 04:21:15;;;;;;;30.60;28.70;;;18.20;85.80;;;;;;5023503;28;20527;-80
2021/06/27 04:23:42;;;;;;;30.93;28.93;;;18.30;85.50;;;;;;4974722;28;20482;-80
2021/06/27 04:26:10;;;;;;;32.17;30.07;;;18.40;85.10;;;;;;5043151;28;20462;-80
2021/06/27 04:28:37;;;;;;;30.23;28.30;;;18.30;85.50;;;;;;5046551;28;20454;-80
2021/06/27 04:31:04;;;;;;;29.67;27.80;;;18.40;85.50;;;;;;5065786;28;20548;-80
2021/06/27 04:33:31;;;;;;;29.90;28.10;;;18.30;85.60;;;;;;4981412;28;20529;-80
2021/06/27 04:35:58;;;;;;;30.57;28.57;;;18.30;85.80;;;;;;5040157;28;20972;-80
2021/06/27 04:38:25;;;;;;;30.27;28.17;;;18.50;85.70;;;;;;5019075;28;20564;-80
2021/06/27 04:40:53;;;;;;;30.60;28.60;;;18.60;84.80;;;;;;5014833;28;22298;-80
2021/06/27 04:43:22;;;;;;;31.23;29.20;;;18.70;84.50;;;;;;5034069;28;20553;-80
2021/06/27 04:45:49;;;;;;;29.97;28.17;;;18.80;84.30;;;;;;5054019;28;20498;-80
2021/06/27 04:48:16;;;;;;;30.57;28.67;;;18.80;84.10;;;;;;5017295;28;20996;-80
2021/06/27 04:50:45;;;;;;;30.53;28.60;;;18.90;83.80;;;;;;4979117;28;20473;-80
2021/06/27 04:53:13;;;;;;;30.67;28.67;;;19.00;83.60;;;;;;4989423;28;20585;-81
2021/06/27 04:55:40;;;;;;;30.70;28.70;;;19.20;83.10;;;;;;4991856;28;20490;-80
2021/06/27 04:58:07;;;;;;;29.77;28.10;;;19.20;82.60;;;;;;4977363;28;20514;-80
2021/06/27 05:00:36;;;;;;;30.47;28.67;;;19.30;82.30;;;;;;4991759;28;21047;-80
2021/06/27 05:03:03;;;;;;;31.03;28.97;;;19.40;82.00;;;;;;5004256;28;21350;-80
2021/06/27 05:05:30;;;;;;;30.67;28.73;;;19.40;81.60;;;;;;5045290;28;20481;-81
2021/06/27 05:07:56;;;;;;;31.27;29.27;;;19.50;81.50;;;;;;5001732;28;20459;-80
2021/06/27 05:10:24;;;;;;;32.10;29.70;;;19.60;81.00;;;;;;5026487;28;20462;-80
2021/06/27 05:12:51;;;;;;;31.97;30.07;;;19.60;81.10;;;;;;5010539;28;20461;-80
2021/06/27 05:15:18;;;;;;;31.10;29.20;;;19.70;80.80;;;;;;4988652;28;20502;-80
2021/06/27 05:17:46;;;;;;;29.90;28.20;;;19.70;80.90;;;;;;5045531;28;20482;-80
2021/06/27 05:20:14;;;;;;;30.80;28.90;;;19.90;80.40;;;;;;5017241;28;21348;-81
2021/06/27 05:22:41;;;;;;;29.60;27.90;;;20.00;80.10;;;;;;4994594;28;20512;-80
2021/06/27 05:25:09;;;;;;;30.40;28.70;;;20.10;79.90;;;;;;4972149;28;20492;-80
2021/06/27 05:27:37;;;;;;;30.27;28.57;;;20.10;79.60;;;;;;4979653;28;20561;-80
2021/06/27 05:30:05;;;;;;;30.30;28.30;;;20.20;79.70;;;;;;5047067;28;20461;-81
2021/06/27 05:32:32;;;;;;;30.97;29.20;;;20.30;79.20;;;;;;5001784;28;20465;-80
2021/06/27 05:35:00;;;;;;;31.47;29.67;;;20.50;78.90;;;;;;5023058;28;20482;-80
2021/06/27 05:37:27;;;;;;;32.80;30.80;;;20.70;78.20;;;;;;4971961;28;20577;-80
2021/06/27 05:39:54;;;;;;;32.63;30.63;;;20.80;77.50;;;;;;5004488;28;20468;-81
2021/06/27 05:42:21;;;;;;;31.17;29.27;;;20.80;76.90;;;;;;4994045;28;20527;-85
2021/06/27 05:44:48;;;;;;;30.90;29.07;;;20.80;77.40;;;;;;4970309;28;20489;-84
2021/06/27 05:47:15;;;;;;;29.97;28.27;;;20.80;77.70;;;;;;4974138;28;20463;-85
2021/06/27 05:49:41;;;;;;;30.83;28.93;;;20.80;77.40;;;;;;4997493;28;20517;-84
2021/06/27 05:52:10;;;;;;;30.33;28.53;;;21.00;77.00;;;;;;4974430;28;20842;-84
2021/06/27 05:54:37;;;;;;;31.30;29.40;;;21.20;76.80;;;;;;4971211;28;20479;-84
2021/06/27 05:57:04;;;;;;;30.20;28.40;;;21.40;76.00;;;;;;4973952;28;20458;-86
2021/06/27 05:59:31;;;;;;;30.27;28.50;;;21.50;75.80;;;;;;5059084;28;20493;-84
2021/06/27 06:01:58;;;;;;;31.20;29.40;;;21.60;75.30;;;;;;4975293;28;20485;-85
2021/06/27 06:04:25;;;;;;;31.40;29.60;;;21.60;74.80;;;;;;5023267;28;20537;-83
2021/06/27 06:06:52;;;;;;;30.17;28.37;;;21.60;74.80;;;;;;4968147;28;20455;-81
2021/06/27 06:09:20;;;;;;;30.43;28.63;;;21.70;74.60;;;;;;5024879;28;20460;-85
2021/06/27 06:11:47;;;;;;;31.90;29.90;;;21.90;74.00;;;;;;5041655;28;20550;-83
2021/06/27 06:14:14;;;;;;;32.30;30.20;;;21.90;73.70;;;;;;4965960;28;20485;-85
2021/06/27 06:16:44;;;;;;;30.70;28.90;;;22.10;73.00;;;;;;4987003;28;20972;-78
2021/06/27 06:19:11;;;;;;;30.40;28.60;;;22.20;72.60;;;;;;5055001;28;20586;-78
2021/06/27 06:21:38;;;;;;;32.23;30.17;;;22.30;72.30;;;;;;5002348;28;20592;-80
2021/06/27 06:24:06;;;;;;;30.60;28.70;;;22.40;72.10;;;;;;5016632;28;20482;-80
2021/06/27 06:26:34;;;;;;;30.30;28.40;;;22.40;72.30;;;;;;4959526;28;20875;-80
2021/06/27 06:29:01;;;;;;;30.57;28.77;;;22.40;72.50;;;;;;5008908;28;20486;-80
2021/06/27 06:31:28;;;;;;;30.53;28.77;;;22.50;72.40;;;;;;4983525;28;20481;-80
2021/06/27 06:33:55;;;;;;;33.73;31.83;;;22.60;71.70;;;;;;4998616;28;20489;-78
2021/06/27 06:36:22;;;;;;;32.67;30.37;;;22.50;71.90;;;;;;5060700;28;20556;-79
2021/06/27 06:38:49;;;;;;;31.60;29.80;;;22.50;71.80;;;;;;4998238;28;20492;-78
2021/06/27 06:41:17;;;;;;;31.30;29.33;;;22.60;72.30;;;;;;5024383;28;20462;-79
2021/06/27 06:43:46;;;;;;;30.73;29.03;;;22.80;71.40;;;;;;4966013;28;20478;-75
2021/06/27 06:46:13;;;;;;;31.10;29.30;;;23.10;70.50;;;;;;4962676;28;20493;-76
2021/06/27 06:48:40;;;;;;;30.60;28.90;;;23.30;69.80;;;;;;4964326;28;20465;-79
2021/06/27 06:51:09;;;;;;;31.30;29.40;;;23.30;68.40;;;;;;5005486;28;20461;-83
2021/06/27 06:53:36;;;;;;;30.03;28.13;;;23.40;68.20;;;;;;4997079;28;20581;-80
2021/06/27 06:56:03;;;;;;;28.87;27.17;;;23.40;68.20;;;;;;4979094;28;20545;-80
2021/06/27 06:58:30;;;;;;;30.43;28.63;;;23.30;68.30;;;;;;4975279;28;20851;-80
2021/06/27 07:01:02;;;;;;;32.60;30.80;;;23.30;68.50;;;;;;5011704;28;21064;-79
2021/06/27 07:03:30;;;;;;;32.20;30.20;;;23.30;69.00;;;;;;4985661;28;20478;-79
2021/06/27 07:06:00;;;;;;;30.27;28.20;;;23.50;68.10;;;;;;4995294;28;20933;-80
2021/06/27 07:08:28;;;;;;;32.60;30.47;;;23.60;67.60;;;;;;4983282;28;20902;-81
2021/06/27 07:10:55;;;;;;;31.40;29.50;;;23.60;67.80;;;;;;4973487;28;20470;-79
2021/06/27 07:13:22;;;;;;;31.90;29.80;;;23.60;67.80;;;;;;4967396;28;20474;-79
2021/06/27 07:15:49;;;;;;;33.00;31.00;;;23.70;67.30;;;;;;4967360;28;20489;-82
2021/06/27 07:18:18;;;;;;;31.00;29.00;;;23.70;67.20;;;;;;4963724;28;21063;-82
2021/06/27 07:20:45;;;;;;;31.03;29.13;;;23.70;67.50;;;;;;4962218;28;20463;-77
2021/06/27 07:23:12;;;;;;;32.67;30.23;;;23.70;67.60;;;;;;4988336;28;20454;-80
2021/06/27 07:25:39;;;;;;;31.03;29.23;;;23.60;67.70;;;;;;4973632;28;20489;-81
2021/06/27 07:28:06;;;;;;;30.60;28.80;;;23.70;68.00;;;;;;4968514;28;20463;-79
2021/06/27 07:30:33;;;;;;;31.77;29.83;;;23.90;67.80;;;;;;4966685;28;20486;-77
2021/06/27 07:33:00;;;;;;;30.47;28.67;;;24.10;67.40;;;;;;4986772;28;20855;-78
2021/06/27 07:35:28;;;;;;;31.60;29.60;;;24.20;67.40;;;;;;5040465;28;20598;-79
2021/06/27 07:37:55;;;;;;;33.27;31.07;;;24.40;66.70;;;;;;5001681;28;20579;-78
2021/06/27 07:40:22;;;;;;;32.20;30.30;;;24.30;66.90;;;;;;4995994;28;20463;-77
2021/06/27 07:42:50;;;;;;;32.83;30.90;;;24.40;66.90;;;;;;4970041;28;20573;-81
2021/06/27 07:45:17;;;;;;;31.20;29.30;;;24.40;66.60;;;;;;4997445;28;20474;-80
2021/06/27 07:47:44;;;;;;;32.13;30.23;;;24.50;66.60;;;;;;4957450;28;20463;-79
2021/06/27 07:50:12;;;;;;;32.40;30.50;;;24.40;66.60;;;;;;4947700;28;20475;-79
2021/06/27 07:52:40;;;;;;;32.97;31.07;;;24.40;66.80;;;;;;4960733;28;20542;-79
2021/06/27 07:55:09;;;;;;;31.23;29.33;;;24.50;66.10;;;;;;4974999;28;21047;-81
2021/06/27 07:57:38;;;;;;;31.47;29.67;;;24.50;66.20;;;;;;4963842;28;21176;-81
2021/06/27 08:00:08;;;;;;;30.60;28.70;;;24.50;66.10;;;;;;4967855;28;20487;-83
2021/06/27 08:02:35;;;;;;;31.60;29.80;;;24.50;66.30;;;;;;4966218;28;20470;-83
2021/06/27 08:05:03;;;;;;;30.40;28.63;;;24.50;66.80;;;;;;4966416;28;20481;-83
2021/06/27 08:07:30;;;;;;;29.80;28.20;;;24.50;66.70;;;;;;4966952;28;20994;-83
2021/06/27 08:09:58;;;;;;;29.37;27.77;;;24.60;66.80;;;;;;4966706;28;20458;-83
2021/06/27 08:12:25;;;;;;;32.37;30.57;;;24.80;66.70;;;;;;4965548;28;20471;-83
2021/06/27 08:14:53;;;;;;;30.50;28.60;;;24.90;65.90;;;;;;4965116;28;20487;-83
2021/06/27 08:17:19;;;;;;;32.50;30.40;;;25.10;65.10;;;;;;4965091;28;20836;-83
2021/06/27 08:19:50;;;;;;;30.20;28.40;;;25.00;64.80;;;;;;4961293;28;20602;-82
2021/06/27 08:22:20;;;;;;;29.57;27.97;;;25.00;64.80;;;;;;4966060;28;20458;-82
2021/06/27 08:24:46;;;;;;;29.70;28.00;;;25.00;64.60;;;;;;4959736;28;20540;-82
2021/06/27 08:27:15;;;;;;;30.67;28.90;;;25.20;64.70;;;;;;4967394;28;20465;-83
2021/06/27 08:29:42;;;;;;;29.93;28.23;;;25.40;64.20;;;;;;4968131;28;20481;-82
2021/06/27 08:32:12;;;;;;;32.37;30.27;;;25.60;62.90;;;;;;4968685;28;21071;-83
2021/06/27 08:34:43;;;;;;;29.97;28.27;;;25.60;62.70;;;;;;4962171;28;20578;-83
2021/06/27 08:37:10;;;;;;;29.83;27.93;;;25.60;62.70;;;;;;4966100;28;20549;-83
2021/06/27 08:39:37;;;;;;;30.03;28.23;;;25.70;62.30;;;;;;4964731;28;20487;-83
2021/06/27 08:42:05;;;;;;;29.33;27.73;;;25.70;62.30;;;;;;4967397;28;20460;-84
2021/06/27 08:44:35;;;;;;;30.10;28.50;;;25.70;62.60;;;;;;4965102;28;20975;-82
2021/06/27 08:47:04;;;;;;;30.80;29.10;;;25.90;62.00;;;;;;4969186;28;20465;-83
2021/06/27 08:49:32;;;;;;;30.93;29.23;;;25.60;62.10;;;;;;4965913;28;20953;-82
2021/06/27 08:51:59;;;;;;;30.30;28.60;;;25.70;61.80;;;;;;4970518;28;20534;-82
2021/06/27 08:54:28;;;;;;;31.13;29.43;;;25.70;61.40;;;;;;4982876;28;20496;-82
2021/06/27 08:56:56;;;;;;;31.67;29.87;;;25.80;61.20;;;;;;4968027;28;20554;-82
2021/06/27 08:59:23;;;;;;;29.63;28.03;;;25.80;61.30;;;;;;4963060;28;20483;-82
2021/06/27 09:01:58;;;;;;;29.80;28.10;;;25.70;61.60;;;;;;4966700;28;20471;-76
2021/06/27 09:04:25;;;;;;;30.67;28.80;;;26.00;60.80;;;;;;4960383;28;20492;-81
2021/06/27 09:06:52;;;;;;;29.63;28.03;;;26.10;60.10;;;;;;5002015;28;20555;-80
2021/06/27 09:09:24;;;;;;;32.97;31.07;;;26.00;60.60;;;;;;4962496;28;20476;-81
2021/06/27 09:12:01;;;;;;;30.23;28.43;;;25.90;60.40;;;;;;4968159;28;20497;-80
2021/06/27 09:14:32;;;;;;;29.43;27.83;;;26.00;60.50;;;;;;4963957;28;20502;-81
2021/06/27 09:17:13;;;;;;;30.53;28.83;;;26.00;60.40;;;;;;4973988;28;20531;-81
2021/06/27 09:20:03;;;;;;;30.77;29.07;;;26.00;60.10;;;;;;4967445;28;20929;-81
2021/06/27 09:22:32;;;;;;;29.33;27.67;;;26.00;59.60;;;;;;4958094;28;20499;-83
2021/06/27 09:25:17;;;;;;;29.50;27.73;;;26.00;60.70;;;;;;4950283;28;20997;-82
2021/06/27 09:27:45;;;;;;;28.47;26.87;;;26.20;60.10;;;;;;4991267;28;20460;-82
2021/06/27 09:30:17;;;;;;;30.07;28.37;;;26.40;58.70;;;;;;4981969;28;20657;-84
2021/06/27 09:33:00;;;;;;;29.50;27.80;;;26.40;57.70;;;;;;4968794;28;20984;-84
2021/06/27 09:35:56;;;;;;;28.63;27.03;;;26.30;59.40;;;;;;4994167;28;20501;-82
2021/06/27 09:38:43;;;;;;;28.77;27.17;;;26.50;57.90;;;;;;4989578;28;20471;-80
2021/06/27 09:41:19;;;;;;;28.77;27.17;;;26.50;58.10;;;;;;4980802;28;20457;-79
2021/06/27 09:43:51;;;;;;;29.53;27.80;;;26.40;57.50;;;;;;5049888;28;20469;-80
2021/06/27 09:46:30;;;;;;;29.47;27.77;;;26.50;57.50;;;;;;4998210;28;20553;-80
2021/06/27 09:48:59;;;;;;;29.63;27.93;;;26.60;56.80;;;;;;4968549;28;20479;-79
2021/06/27 09:51:29;;;;;;;29.67;27.87;;;26.60;56.80;;;;;;4979053;28;20458;-79
2021/06/27 09:53:57;;;;;;;28.60;26.90;;;26.80;56.90;;;;;;5065379;28;20561;-80
2021/06/27 09:56:25;;;;;;;29.23;27.53;;;26.80;57.30;;;;;;5033276;28;20502;-80
2021/06/27 09:58:57;;;;;;;28.97;27.27;;;26.90;57.10;;;;;;4980159;28;20550;-80
2021/06/27 10:01:25;;;;;;;29.63;27.93;;;27.10;56.90;;;;;;4976822;28;20613;-79
2021/06/27 10:03:54;;;;;;;30.00;28.10;;;27.40;57.00;;;;;;5055905;28;20469;-79
2021/06/27 10:06:24;;;;;;;31.50;29.60;;;27.50;56.40;;;;;;5025794;28;20566;-79
2021/06/27 10:08:52;;;;;;;29.20;27.60;;;27.80;56.70;;;;;;5010276;28;20470;-79
2021/06/27 10:11:20;;;;;;;31.47;29.57;;;28.00;55.60;;;;;;4973588;28;20523;-80
2021/06/27 10:13:50;;;;;;;30.07;28.27;;;28.20;55.00;;;;;;4977114;28;20483;-80
2021/06/27 10:16:30;;;;;;;30.30;28.60;;;28.00;54.90;;;;;;4980844;28;20463;-79
2021/06/27 10:18:59;;;;;;;31.40;29.40;;;28.10;53.80;;;;;;4962334;28;20537;-80
2021/06/27 10:21:29;;;;;;;29.27;27.47;;;28.20;54.10;;;;;;4973142;28;20581;-80
2021/06/27 10:23:56;;;;;;;29.70;28.00;;;28.40;54.40;;;;;;5013374;28;20475;-80
2021/06/27 10:26:26;;;;;;;29.50;27.80;;;28.90;53.00;;;;;;5027586;28;20477;-80
2021/06/27 10:28:54;;;;;;;30.07;28.27;;;29.10;52.00;;;;;;4971682;28;20516;-82
2021/06/27 10:31:23;;;;;;;30.70;28.80;;;29.30;51.80;;;;;;4971855;28;20465;-84
2021/06/27 10:33:51;;;;;;;28.77;27.10;;;29.60;50.80;;;;;;5010738;28;20479;-81
2021/06/27 10:36:27;;;;;;;28.60;26.93;;;29.50;49.80;;;;;;4971443;28;20466;-81
2021/06/27 10:38:55;;;;;;;29.47;27.77;;;29.20;50.40;;;;;;4970600;28;20509;-81
2021/06/27 10:41:48;;;;;;;29.57;27.77;;;29.30;50.40;;;;;;4977554;28;20463;-83
2021/06/27 10:44:15;;;;;;;29.50;27.80;;;29.30;50.40;;;;;;4994855;28;20481;-81
2021/06/27 10:46:44;;;;;;;29.87;28.17;;;29.70;50.40;;;;;;4971687;28;20675;-81
2021/06/27 10:49:40;;;;;;;31.63;29.73;;;30.10;49.10;;;;;;5066406;28;20545;-82
2021/06/27 10:52:10;;;;;;;29.10;27.40;;;30.40;49.00;;;;;;4969894;28;20463;-81
2021/06/27 10:54:38;;;;;;;29.43;27.73;;;30.60;48.40;;;;;;4973654;28;20486;-81
2021/06/27 10:57:07;;;;;;;27.97;26.47;;;30.80;47.80;;;;;;4979003;28;20451;-82
2021/06/27 10:59:56;;;;;;;29.50;27.80;;;31.00;45.90;;;;;;5019812;28;20573;-80
2021/06/27 11:02:39;;;;;;;28.50;26.90;;;31.00;45.20;;;;;;4959273;28;20471;-83
2021/06/27 11:05:43;;;;;;;29.00;27.30;;;31.00;46.30;;;;;;5039468;28;21185;-81
2021/06/27 11:08:13;;;;;;;29.30;27.60;;;31.30;45.90;;;;;;4992311;28;20447;-81
2021/06/27 11:10:41;;;;;;;29.23;27.50;;;31.30;45.80;;;;;;5025277;28;20454;-82
2021/06/27 11:13:15;;;;;;;37.20;34.70;;;31.30;44.10;;;;;;4969776;28;20497;-81
2021/06/27 11:16:22;;;;;;;31.47;29.67;;;31.40;44.30;;;;;;5021914;28;21168;-81
2021/06/27 11:18:52;;;;;;;28.83;27.10;;;31.50;43.70;;;;;;4974173;28;20473;-81
2021/06/27 11:21:25;;;;;;;29.50;27.90;;;31.10;44.30;;;;;;4990169;28;20469;-83
2021/06/27 11:24:01;;;;;;;29.03;27.37;;;30.80;45.30;;;;;;4992605;28;20480;-83
2021/06/27 11:26:55;;;;;;;27.77;26.17;;;30.90;45.50;;;;;;4964172;28;20537;-85
2021/06/27 11:29:49;;;;;;;28.00;26.40;;;30.90;46.00;;;;;;4963484;28;21137;-81
2021/06/27 11:32:48;;;;;;;27.83;26.13;;;31.00;44.60;;;;;;4958730;28;20534;-83
2021/06/27 11:35:49;;;;;;;29.03;27.43;;;31.00;44.80;;;;;;4962537;28;20498;-84
2021/06/27 11:38:38;;;;;;;27.53;25.93;;;31.00;45.10;;;;;;4949639;28;20495;-85
2021/06/27 11:41:08;;;;;;;27.67;26.17;;;31.10;45.90;;;;;;4971041;28;21200;-85
2021/06/27 11:43:56;;;;;;;29.10;27.40;;;31.20;46.30;;;;;;4976739;28;20462;-84
2021/06/27 11:46:32;;;;;;;29.60;27.90;;;31.10;46.30;;;;;;4972659;28;20549;-83
2021/06/27 11:49:00;;;;;;;27.73;26.13;;;31.10;46.80;;;;;;4968320;28;20537;-82
2021/06/27 11:51:39;;;;;;;29.77;27.97;;;31.00;46.50;;;;;;4967283;28;20522;-83
2021/06/27 11:54:07;;;;;;;31.27;29.50;;;30.90;45.60;;;;;;4963814;28;20561;-83
2021/06/27 11:56:55;;;;;;;28.50;26.80;;;30.80;46.30;;;;;;4963514;28;21194;-82
2021/06/27 11:59:25;;;;;;;32.70;30.77;;;30.70;46.40;;;;;;4953554;28;20835;-83
2021/06/27 12:02:15;;;;;;;27.97;26.27;;;30.70;46.20;;;;;;4969971;28;20956;-83
2021/06/27 12:04:49;;;;;;;30.80;29.00;;;30.50;46.30;;;;;;4972200;28;20889;-84
2021/06/27 12:07:41;;;;;;;28.90;27.20;;;30.10;47.60;;;;;;4960649;28;20470;-84
2021/06/27 12:10:21;;;;;;;27.90;26.30;;;30.50;48.10;;;;;;4979924;28;21227;-85
2021/06/27 12:12:51;;;;;;;30.40;28.37;;;30.60;47.10;;;;;;4968978;28;21177;-82
2021/06/27 12:15:28;;;;;;;32.27;30.37;;;30.80;46.30;;;;;;4966015;28;20478;-80
2021/06/27 12:17:58;;;;;;;30.80;29.00;;;31.00;46.40;;;;;;4964247;28;21238;-82
2021/06/27 12:20:26;;;;;;;28.63;27.03;;;30.60;46.10;;;;;;4968114;28;20566;-82
2021/06/27 12:22:55;;;;;;;28.00;26.43;;;30.30;46.50;;;;;;4960358;28;20474;-80
2021/06/27 12:25:27;;;;;;;30.43;28.80;;;30.70;46.00;;;;;;4962740;28;20490;-82
2021/06/27 12:27:58;;;;;;;28.30;26.70;;;30.80;45.70;;;;;;4975039;28;20562;-79
2021/06/27 12:30:56;;;;;;;29.07;27.47;;;31.10;45.20;;;;;;4986020;28;20579;-79
2021/06/27 12:33:25;;;;;;;31.20;29.40;;;31.30;43.90;;;;;;5006371;28;20453;-79
2021/06/27 12:35:56;;;;;;;27.77;26.27;;;31.40;43.60;;;;;;4977214;28;20967;-79
2021/06/27 12:38:24;;;;;;;28.83;27.13;;;31.60;44.40;;;;;;4969663;28;20450;-81
2021/06/27 12:40:54;;;;;;;30.33;28.63;;;31.50;44.20;;;;;;4957324;28;20549;-76
2021/06/27 12:43:35;;;;;;;30.30;28.40;;;31.50;44.50;;;;;;4964310;28;20472;-75